createdAt,value
2022-08-11T00:04:55.943Z,2.47
2022-08-11T00:10:00.585Z,2.40
2022-08-11T00:15:03.547Z,2.50
2022-08-11T00:20:12.027Z,2.50
2022-08-11T00:25:22.135Z,2.45
2022-08-11T00:30:24.834Z,2.80
2022-08-11T00:35:52.012Z,2.53
2022-08-11T00:40:56.585Z,2.67
2022-08-11T00:46:13.766Z,2.65
2022-08-11T00:51:24.669Z,2.35
2022-08-11T00:57:02.636Z,2.60
2022-08-11T01:02:43.066Z,2.85
2022-08-11T01:08:16.449Z,3.00
2022-08-11T01:13:39.048Z,3.00
2022-08-11T01:19:27.777Z,2.85
2022-08-11T01:24:52.947Z,2.60
2022-08-11T01:30:15.422Z,2.58
2022-08-11T01:35:50.819Z,2.67
2022-08-11T01:41:02.329Z,2.13
2022-08-11T01:46:08.278Z,2.78
2022-08-11T01:51:24.937Z,2.90
2022-08-11T01:56:41.537Z,2.70
2022-08-11T02:02:00.265Z,3.17
2022-08-11T02:07:12.349Z,2.55
2022-08-11T02:12:21.463Z,2.83
2022-08-11T02:17:42.427Z,2.55
2022-08-11T02:23:11.720Z,3.13
2022-08-11T02:28:25.842Z,2.90
2022-08-11T02:33:34.511Z,2.92
2022-08-11T02:38:45.218Z,2.53
2022-08-11T02:43:54.082Z,2.53
2022-08-11T02:49:19.580Z,2.60
2022-08-11T02:54:27.752Z,2.90
2022-08-11T02:59:53.685Z,3.65
2022-08-11T03:05:02.560Z,3.45
2022-08-11T03:10:11.758Z,3.47
2022-08-11T03:15:37.801Z,3.88
2022-08-11T03:20:46.690Z,3.20
2022-08-11T03:25:56.033Z,2.78
2022-08-11T03:31:09.173Z,2.90
2022-08-11T03:36:19.644Z,2.95
2022-08-11T03:42:02.086Z,2.95
2022-08-11T03:47:24.199Z,3.00
2022-08-11T03:52:39.219Z,2.72
2022-08-11T03:58:23.387Z,2.78
2022-08-11T04:03:47.183Z,2.80
2022-08-11T04:09:16.724Z,2.85
2022-08-11T04:15:04.678Z,3.33
2022-08-11T04:20:37.972Z,2.72
2022-08-11T04:26:01.209Z,3.00
2022-08-11T04:31:51.156Z,2.95
2022-08-11T04:37:28.996Z,2.70
2022-08-11T04:43:24.341Z,2.97
2022-08-11T04:49:12.389Z,3.40
2022-08-11T04:55:01.130Z,3.10
2022-08-11T05:00:25.099Z,3.42
2022-08-11T05:05:37.691Z,3.65
2022-08-11T05:10:57.931Z,4.18
2022-08-11T05:16:21.737Z,3.10
2022-08-11T05:21:44.670Z,4.03
2022-08-11T05:27:11.267Z,3.85
2022-08-11T05:32:35.430Z,4.07
2022-08-11T05:37:57.714Z,3.58
2022-08-11T05:43:20.129Z,3.60
2022-08-11T05:48:41.027Z,3.17
2022-08-11T05:54:06.733Z,3.15
2022-08-11T05:59:29.979Z,3.00
2022-08-11T06:04:33.025Z,3.30
2022-08-11T06:09:38.959Z,2.60
2022-08-11T06:14:44.324Z,2.55
2022-08-11T06:19:48.852Z,2.63
2022-08-11T06:24:57.455Z,2.80
2022-08-11T06:30:00.826Z,2.70
2022-08-11T06:35:11.469Z,2.30
2022-08-11T06:40:27.354Z,2.28
2022-08-11T06:45:35.181Z,2.10
2022-08-11T06:50:55.866Z,2.20
2022-08-11T06:56:17.955Z,2.13
2022-08-11T07:01:31.415Z,2.20
2022-08-11T07:06:50.951Z,2.10
2022-08-11T07:12:19.156Z,2.22
2022-08-11T07:17:23.674Z,2.03
2022-08-11T07:22:45.340Z,1.95
2022-08-11T07:28:10.527Z,1.92
2022-08-11T07:34:04.766Z,2.38
2022-08-11T07:38:45.979Z,2.08
2022-08-11T07:43:53.829Z,1.80
2022-08-11T07:49:14.520Z,1.83
2022-08-11T07:54:17.589Z,1.65
2022-08-11T08:00:00.046Z,2.00
2022-08-11T08:05:23.534Z,1.98
2022-08-11T08:10:44.226Z,1.85
2022-08-11T08:16:05.938Z,1.85
2022-08-11T08:21:16.806Z,1.95
2022-08-11T08:26:37.769Z,1.77
2022-08-11T08:31:42.124Z,1.80
2022-08-11T08:36:46.275Z,2.05
2022-08-11T08:41:50.570Z,1.50
2022-08-11T08:46:56.228Z,2.63
2022-08-11T08:52:21.141Z,2.00
2022-08-11T08:57:29.774Z,1.98
2022-08-11T09:02:35.214Z,1.60
2022-08-11T09:07:39.913Z,1.63
2022-08-11T09:12:43.544Z,1.58
2022-08-11T09:17:48.985Z,1.60
2022-08-11T09:28:34.447Z,1.60
2022-08-11T09:33:38.909Z,1.40
2022-08-11T09:39:03.608Z,1.50
2022-08-11T09:44:24.620Z,1.27
2022-08-11T09:49:29.471Z,1.50
2022-08-11T09:54:32.188Z,1.55
2022-08-11T09:59:36.613Z,1.50
2022-08-11T10:04:43.007Z,1.33
2022-08-11T10:09:49.785Z,1.42
2022-08-11T10:15:13.100Z,1.60
2022-08-11T10:20:21.434Z,1.40
2022-08-11T10:32:14.529Z,1.50
2022-08-11T10:37:20.615Z,1.45
2022-08-11T10:42:57.533Z,1.50
2022-08-11T10:48:01.118Z,1.17
2022-08-11T10:53:22.781Z,2.38
2022-08-11T10:58:42.907Z,1.20
2022-08-11T11:03:46.057Z,1.48
2022-08-11T11:09:00.054Z,1.80
2022-08-11T11:14:23.519Z,1.42
2022-08-11T11:19:30.321Z,1.40
2022-08-11T11:24:41.343Z,1.63
2022-08-11T11:29:54.780Z,1.67
2022-08-11T11:35:17.441Z,1.63
2022-08-11T11:40:28.683Z,1.48
2022-08-11T11:45:34.889Z,1.67
2022-08-11T11:50:38.927Z,1.23
2022-08-11T11:55:43.163Z,1.58
2022-08-11T12:01:04.258Z,4.57
2022-08-11T12:06:08.519Z,1.30
2022-08-11T12:11:31.116Z,1.50
2022-08-11T12:16:37.005Z,1.48
2022-08-11T12:22:01.913Z,1.50
2022-08-11T12:27:24.281Z,1.52
2022-08-11T12:32:31.103Z,1.90
2022-08-11T12:37:36.937Z,1.50
2022-08-11T12:42:58.675Z,1.65
2022-08-11T12:48:58.892Z,1.60
2022-08-11T12:53:55.125Z,1.20
2022-08-11T12:59:17.523Z,1.65
2022-08-11T13:04:38.223Z,1.50
2022-08-11T13:09:42.113Z,1.58
2022-08-11T13:14:46.359Z,1.40
2022-08-11T13:19:49.831Z,1.40
2022-08-11T13:24:55.279Z,1.30
2022-08-11T13:30:13.961Z,1.40
2022-08-11T13:35:17.213Z,1.25
2022-08-11T13:40:33.271Z,1.70
2022-08-11T13:45:47.811Z,1.50
2022-08-11T13:51:08.099Z,1.50
2022-08-11T13:56:10.896Z,1.60
2022-08-11T14:02:20.646Z,1.50
2022-08-11T14:06:42.305Z,1.42
2022-08-11T14:12:22.791Z,1.70
2022-08-11T14:17:46.771Z,1.58
2022-08-11T14:22:53.152Z,1.10
2022-08-11T14:28:32.202Z,1.35
2022-08-11T14:33:21.274Z,1.45
2022-08-11T14:38:24.246Z,1.30
2022-08-11T14:44:12.387Z,1.30
2022-08-11T14:49:09.294Z,1.38
2022-08-11T14:54:29.871Z,1.40
2022-08-11T14:59:33.314Z,1.50
2022-08-11T15:04:37.824Z,1.58
2022-08-11T15:10:09.844Z,1.38
2022-08-11T15:15:26.179Z,1.33
2022-08-11T15:20:53.816Z,1.15
2022-08-11T15:25:59.412Z,1.40
2022-08-11T15:31:21.595Z,1.80
2022-08-11T15:36:43.867Z,1.38
2022-08-11T15:42:13.137Z,1.20
2022-08-11T15:47:16.898Z,1.10
2022-08-11T15:52:24.488Z,1.30
2022-08-11T15:57:45.314Z,1.60
2022-08-11T16:03:08.968Z,1.30
2022-08-11T16:08:17.094Z,1.45
2022-08-11T16:13:50.758Z,1.30
2022-08-11T16:18:56.555Z,1.42
2022-08-11T16:24:01.825Z,1.23
2022-08-11T16:29:04.882Z,1.15
2022-08-11T16:34:28.545Z,1.20
2022-08-11T16:39:33.071Z,1.10
2022-08-11T16:44:55.722Z,1.25
2022-08-11T16:49:59.155Z,1.48
2022-08-11T16:55:04.045Z,1.48
2022-08-11T17:00:12.578Z,1.17
2022-08-11T17:05:38.243Z,1.17
2022-08-11T17:11:07.071Z,0.75
2022-08-11T17:16:13.179Z,1.20
2022-08-11T17:21:19.818Z,0.90
2022-08-11T17:26:51.477Z,0.75
2022-08-11T17:32:13.721Z,0.88
2022-08-11T17:37:16.745Z,1.00
2022-08-11T17:42:39.283Z,0.93
2022-08-11T17:48:00.027Z,0.80
2022-08-11T17:53:21.447Z,0.80
2022-08-11T17:58:44.186Z,0.85
2022-08-11T18:03:57.321Z,0.95
2022-08-11T18:09:20.168Z,0.63
2022-08-11T18:14:42.902Z,0.70
2022-08-11T18:20:03.418Z,0.68
2022-08-11T18:25:27.628Z,1.30
2022-08-11T18:30:50.420Z,0.82
2022-08-11T18:36:17.503Z,0.80
2022-08-11T18:41:38.534Z,0.95
2022-08-11T18:47:02.301Z,0.70
2022-08-11T18:52:28.397Z,1.30
2022-08-11T18:57:53.909Z,1.50
2022-08-11T19:03:17.480Z,1.40
2022-08-11T19:08:38.269Z,1.30
2022-08-11T19:13:59.441Z,1.20
2022-08-11T19:19:21.558Z,1.40
2022-08-11T19:24:43.801Z,1.10
2022-08-11T19:30:13.521Z,0.90
2022-08-11T19:35:36.485Z,0.90
2022-08-11T19:40:58.086Z,1.05
2022-08-11T19:46:19.513Z,1.10
2022-08-11T19:51:42.931Z,0.90
2022-08-11T19:57:04.307Z,0.90
2022-08-11T20:02:24.752Z,0.90
2022-08-11T20:07:46.933Z,1.00
2022-08-11T20:13:07.637Z,1.00
2022-08-11T20:18:29.795Z,1.10
2022-08-11T20:23:51.724Z,1.40
2022-08-11T20:29:12.785Z,1.40
2022-08-11T20:34:34.700Z,1.10
2022-08-11T20:39:57.491Z,1.02
2022-08-11T20:45:23.936Z,1.20
2022-08-11T20:50:45.944Z,0.90
2022-08-11T20:56:08.279Z,1.73
2022-08-11T21:01:38.609Z,1.10
2022-08-11T21:07:00.277Z,0.77
2022-08-11T21:12:24.520Z,1.00
2022-08-11T21:18:00.839Z,0.80
2022-08-11T21:23:29.226Z,1.30
2022-08-11T21:28:52.602Z,1.08
2022-08-11T21:34:13.422Z,1.15
2022-08-11T21:39:36.634Z,1.20
2022-08-11T21:44:58.595Z,1.13
2022-08-11T21:50:19.001Z,1.20
2022-08-11T21:55:40.071Z,0.90
2022-08-11T22:01:02.362Z,1.10
2022-08-11T22:06:22.994Z,1.15
2022-08-11T22:11:43.260Z,1.02
2022-08-11T22:17:05.039Z,1.05
2022-08-11T22:22:26.264Z,1.20
2022-08-11T22:27:46.696Z,1.10
2022-08-11T22:33:08.387Z,0.80
2022-08-11T22:38:28.731Z,1.00
2022-08-11T22:43:49.229Z,1.17
2022-08-11T22:49:11.368Z,1.00
2022-08-11T22:54:32.416Z,1.00
2022-08-11T22:59:54.037Z,1.10
2022-08-11T23:05:16.448Z,1.10
2022-08-11T23:10:37.170Z,1.17
2022-08-11T23:15:57.869Z,0.98
2022-08-11T23:21:20.527Z,1.05
2022-08-11T23:26:42.894Z,1.20
2022-08-11T23:32:04.985Z,1.13
2022-08-11T23:37:26.973Z,1.17
2022-08-11T23:42:47.356Z,1.25
2022-08-11T23:48:08.596Z,1.20
2022-08-11T23:53:31.222Z,1.20
2022-08-11T23:58:52.906Z,1.08
